sensor_id;sensor_type;location;lat;lon;timestamp;temperature;humidity
3578;DHT22;1803;48.494;9.696;2022-08-27T03:02:57;17.20;99.90
3578;DHT22;1803;48.494;9.696;2022-08-27T03:05:22;17.20;99.90
3578;DHT22;1803;48.494;9.696;2022-08-27T03:07:48;17.20;99.90
3578;DHT22;1803;48.494;9.696;2022-08-27T03:10:15;17.20;99.90
3578;DHT22;1803;48.494;9.696;2022-08-27T03:12:41;17.30;99.90
3578;DHT22;1803;48.494;9.696;2022-08-27T03:15:07;17.30;99.90
3578;DHT22;1803;48.494;9.696;2022-08-27T03:17:33;17.30;99.90
3578;DHT22;1803;48.494;9.696;2022-08-27T03:20:18;17.30;99.90
3578;DHT22;1803;48.494;9.696;2022-08-27T03:22:43;17.40;99.90
3578;DHT22;1803;48.494;9.696;2022-08-27T03:25:09;17.40;99.90
3578;DHT22;1803;48.494;9.696;2022-08-27T03:27:35;17.40;99.90
3578;DHT22;1803;48.494;9.696;2022-08-27T03:30:01;17.40;99.90
3578;DHT22;1803;48.494;9.696;2022-08-27T03:32:27;17.40;99.90
3578;DHT22;1803;48.494;9.696;2022-08-27T03:34:55;17.40;99.90
3578;DHT22;1803;48.494;9.696;2022-08-27T03:37:20;17.50;99.90
3578;DHT22;1803;48.494;9.696;2022-08-27T03:39:46;17.50;99.90
3578;DHT22;1803;48.494;9.696;2022-08-27T03:42:11;17.50;99.90
3578;DHT22;1803;48.494;9.696;2022-08-27T03:44:36;17.50;99.90
3578;DHT22;1803;48.494;9.696;2022-08-27T03:47:02;17.50;99.90
3578;DHT22;1803;48.494;9.696;2022-08-27T03:49:28;17.50;99.90
3578;DHT22;1803;48.494;9.696;2022-08-27T03:51:53;17.50;99.90
3578;DHT22;1803;48.494;9.696;2022-08-27T03:54:19;17.40;99.90
3578;DHT22;1803;48.494;9.696;2022-08-27T03:56:45;17.50;99.90
3578;DHT22;1803;48.494;9.696;2022-08-27T03:59:11;17.40;99.90
3578;DHT22;1803;48.494;9.696;2022-08-27T04:01:36;17.50;99.90
3578;DHT22;1803;48.494;9.696;2022-08-27T04:04:02;17.40;99.90
3578;DHT22;1803;48.494;9.696;2022-08-27T04:06:28;17.40;99.90
3578;DHT22;1803;48.494;9.696;2022-08-27T04:08:53;17.40;99.90
3578;DHT22;1803;48.494;9.696;2022-08-27T04:11:19;17.40;99.90
3578;DHT22;1803;48.494;9.696;2022-08-27T04:13:45;17.40;99.90
3578;DHT22;1803;48.494;9.696;2022-08-27T04:16:11;17.40;99.90
3578;DHT22;1803;48.494;9.696;2022-08-27T04:18:36;17.50;99.90
3578;DHT22;1803;48.494;9.696;2022-08-27T04:21:06;17.40;99.90
3578;DHT22;1803;48.494;9.696;2022-08-27T04:23:31;17.50;99.90
3578;DHT22;1803;48.494;9.696;2022-08-27T04:25:57;17.50;99.90
3578;DHT22;1803;48.494;9.696;2022-08-27T04:28:22;17.50;99.90
3578;DHT22;1803;48.494;9.696;2022-08-27T04:30:48;17.50;99.90
3578;DHT22;1803;48.494;9.696;2022-08-27T04:33:14;17.60;99.90
3578;DHT22;1803;48.494;9.696;2022-08-27T04:35:39;17.60;99.90
3578;DHT22;1803;48.494;9.696;2022-08-27T04:38:05;17.60;99.90
3578;DHT22;1803;48.494;9.696;2022-08-27T04:40:31;17.60;99.90
3578;DHT22;1803;48.494;9.696;2022-08-27T04:43:15;17.70;99.90
3578;DHT22;1803;48.494;9.696;2022-08-27T04:45:44;17.70;99.90
3578;DHT22;1803;48.494;9.696;2022-08-27T04:48:10;17.80;99.90
3578;DHT22;1803;48.494;9.696;2022-08-27T04:50:43;17.80;99.90
3578;DHT22;1803;48.494;9.696;2022-08-27T04:53:09;17.80;99.90
3578;DHT22;1803;48.494;9.696;2022-08-27T04:55:45;17.80;99.90
3578;DHT22;1803;48.494;9.696;2022-08-27T04:58:11;17.80;99.90
3578;DHT22;1803;48.494;9.696;2022-08-27T05:00:44;17.80;99.90
3578;DHT22;1803;48.494;9.696;2022-08-27T05:03:10;17.90;99.90
3578;DHT22;1803;48.494;9.696;2022-08-27T05:05:35;17.90;99.90
3578;DHT22;1803;48.494;9.696;2022-08-27T05:08:01;17.80;99.90
3578;DHT22;1803;48.494;9.696;2022-08-27T05:10:27;17.80;99.90
3578;DHT22;1803;48.494;9.696;2022-08-27T05:12:52;17.80;99.90
3578;DHT22;1803;48.494;9.696;2022-08-27T05:15:18;17.90;99.90
3578;DHT22;1803;48.494;9.696;2022-08-27T05:17:43;17.80;99.90
3578;DHT22;1803;48.494;9.696;2022-08-27T05:20:09;17.80;99.90
3578;DHT22;1803;48.494;9.696;2022-08-27T05:22:35;17.80;99.90
3578;DHT22;1803;48.494;9.696;2022-08-27T05:25:00;17.80;99.90
3578;DHT22;1803;48.494;9.696;2022-08-27T05:27:25;17.80;99.90
3578;DHT22;1803;48.494;9.696;2022-08-27T05:29:51;17.80;99.90
3578;DHT22;1803;48.494;9.696;2022-08-27T05:32:16;17.80;99.90
3578;DHT22;1803;48.494;9.696;2022-08-27T05:34:42;17.80;99.90
3578;DHT22;1803;48.494;9.696;2022-08-27T05:37:08;17.80;99.90
3578;DHT22;1803;48.494;9.696;2022-08-27T05:39:34;17.80;99.90
3578;DHT22;1803;48.494;9.696;2022-08-27T05:41:59;17.90;99.90
3578;DHT22;1803;48.494;9.696;2022-08-27T05:44:24;18.00;99.90
3578;DHT22;1803;48.494;9.696;2022-08-27T05:46:50;18.00;99.90
3578;DHT22;1803;48.494;9.696;2022-08-27T05:49:15;18.00;99.90
3578;DHT22;1803;48.494;9.696;2022-08-27T05:51:41;18.00;99.90
3578;DHT22;1803;48.494;9.696;2022-08-27T05:54:09;18.10;99.90
3578;DHT22;1803;48.494;9.696;2022-08-27T05:56:44;18.10;99.90
3578;DHT22;1803;48.494;9.696;2022-08-27T05:59:10;18.20;99.90
3578;DHT22;1803;48.494;9.696;2022-08-27T06:01:54;18.20;99.90
3578;DHT22;1803;48.494;9.696;2022-08-27T06:04:21;18.30;99.90
3578;DHT22;1803;48.494;9.696;2022-08-27T06:06:47;18.30;99.90
3578;DHT22;1803;48.494;9.696;2022-08-27T06:09:14;18.30;99.90
3578;DHT22;1803;48.494;9.696;2022-08-27T06:11:40;18.40;99.90
3578;DHT22;1803;48.494;9.696;2022-08-27T06:14:05;18.40;99.90
3578;DHT22;1803;48.494;9.696;2022-08-27T06:16:33;18.40;99.90
3578;DHT22;1803;48.494;9.696;2022-08-27T06:18:59;18.40;99.90
3578;DHT22;1803;48.494;9.696;2022-08-27T06:21:24;18.40;99.90
3578;DHT22;1803;48.494;9.696;2022-08-27T06:23:50;18.40;99.90
3578;DHT22;1803;48.494;9.696;2022-08-27T06:26:17;18.50;99.90
3578;DHT22;1803;48.494;9.696;2022-08-27T06:28:42;18.50;99.90
3578;DHT22;1803;48.494;9.696;2022-08-27T12:36:24;17.90;99.90
3578;DHT22;1803;48.494;9.696;2022-08-27T12:38:55;17.90;99.90
3578;DHT22;1803;48.494;9.696;2022-08-27T12:41:28;17.90;99.90
3578;DHT22;1803;48.494;9.696;2022-08-27T12:44:03;17.90;99.90
3578;DHT22;1803;48.494;9.696;2022-08-27T12:46:29;17.90;99.90
3578;DHT22;1803;48.494;9.696;2022-08-27T12:48:55;18.00;99.90
3578;DHT22;1803;48.494;9.696;2022-08-27T12:51:25;18.10;99.90
3578;DHT22;1803;48.494;9.696;2022-08-27T13:01:58;18.30;99.90
3578;DHT22;1803;48.494;9.696;2022-08-27T13:04:29;18.30;99.90
3578;DHT22;1803;48.494;9.696;2022-08-27T13:06:55;18.30;99.90
3578;DHT22;1803;48.494;9.696;2022-08-27T13:09:26;18.30;99.90
3578;DHT22;1803;48.494;9.696;2022-08-27T13:11:52;18.40;99.90
3578;DHT22;1803;48.494;9.696;2022-08-27T13:14:21;18.40;99.90
3578;DHT22;1803;48.494;9.696;2022-08-27T13:17:07;18.40;99.90
3578;DHT22;1803;48.494;9.696;2022-08-27T13:19:34;18.30;99.90
3578;DHT22;1803;48.494;9.696;2022-08-27T13:22:00;18.20;99.90
3578;DHT22;1803;48.494;9.696;2022-08-27T13:26:52;18.30;99.90
3578;DHT22;1803;48.494;9.696;2022-08-27T13:29:22;18.20;99.90
3578;DHT22;1803;48.494;9.696;2022-08-27T13:31:47;18.20;99.90
3578;DHT22;1803;48.494;9.696;2022-08-27T13:34:16;18.30;99.90
3578;DHT22;1803;48.494;9.696;2022-08-27T13:39:22;18.30;99.90
3578;DHT22;1803;48.494;9.696;2022-08-27T13:41:47;18.30;99.90
3578;DHT22;1803;48.494;9.696;2022-08-27T13:44:16;18.40;99.90
3578;DHT22;1803;48.494;9.696;2022-08-27T13:46:46;18.50;99.90
3578;DHT22;1803;48.494;9.696;2022-08-27T13:49:13;18.50;99.90
3578;DHT22;1803;48.494;9.696;2022-08-27T13:51:41;18.50;99.90
3578;DHT22;1803;48.494;9.696;2022-08-27T13:54:09;18.60;99.90
3578;DHT22;1803;48.494;9.696;2022-08-27T13:59:24;18.70;99.90
3578;DHT22;1803;48.494;9.696;2022-08-27T14:01:54;18.70;99.90
3578;DHT22;1803;48.494;9.696;2022-08-27T14:04:25;18.80;99.90
3578;DHT22;1803;48.494;9.696;2022-08-27T14:06:50;18.80;99.90
3578;DHT22;1803;48.494;9.696;2022-08-27T14:09:18;18.90;99.90
3578;DHT22;1803;48.494;9.696;2022-08-27T14:11:46;18.90;99.90
3578;DHT22;1803;48.494;9.696;2022-08-27T14:14:12;19.00;99.90
3578;DHT22;1803;48.494;9.696;2022-08-27T14:16:38;19.10;99.90
3578;DHT22;1803;48.494;9.696;2022-08-27T14:21:32;19.30;99.90
3578;DHT22;1803;48.494;9.696;2022-08-27T14:23:59;19.30;99.90
3578;DHT22;1803;48.494;9.696;2022-08-27T14:26:25;19.50;99.90
3578;DHT22;1803;48.494;9.696;2022-08-27T14:28:51;19.50;99.90
3578;DHT22;1803;48.494;9.696;2022-08-27T14:31:16;19.70;99.90
3578;DHT22;1803;48.494;9.696;2022-08-27T14:33:42;19.80;99.90
3578;DHT22;1803;48.494;9.696;2022-08-27T14:36:11;19.80;99.90
3578;DHT22;1803;48.494;9.696;2022-08-27T14:38:38;19.80;99.90
3578;DHT22;1803;48.494;9.696;2022-08-27T14:41:05;19.80;99.90
3578;DHT22;1803;48.494;9.696;2022-08-27T14:43:31;19.90;99.90
3578;DHT22;1803;48.494;9.696;2022-08-27T14:45:57;20.00;99.90
3578;DHT22;1803;48.494;9.696;2022-08-27T14:48:24;20.00;99.90
3578;DHT22;1803;48.494;9.696;2022-08-27T14:50:51;20.10;99.90
3578;DHT22;1803;48.494;9.696;2022-08-27T14:53:17;20.10;99.90
3578;DHT22;1803;48.494;9.696;2022-08-27T14:55:44;20.20;99.90
3578;DHT22;1803;48.494;9.696;2022-08-27T14:58:10;20.20;99.90
3578;DHT22;1803;48.494;9.696;2022-08-27T15:00:36;20.20;99.90
3578;DHT22;1803;48.494;9.696;2022-08-27T15:03:01;20.30;99.90
3578;DHT22;1803;48.494;9.696;2022-08-27T15:05:26;20.40;99.90
3578;DHT22;1803;48.494;9.696;2022-08-27T15:07:52;20.40;99.90
3578;DHT22;1803;48.494;9.696;2022-08-27T15:10:19;20.40;99.90
3578;DHT22;1803;48.494;9.696;2022-08-27T15:12:44;20.40;99.90
3578;DHT22;1803;48.494;9.696;2022-08-27T15:15:10;20.30;99.90
3578;DHT22;1803;48.494;9.696;2022-08-27T15:17:36;20.30;99.90
3578;DHT22;1803;48.494;9.696;2022-08-27T15:20:06;20.30;99.90
3578;DHT22;1803;48.494;9.696;2022-08-27T15:22:32;20.30;99.90
3578;DHT22;1803;48.494;9.696;2022-08-27T15:24:58;20.30;99.90
3578;DHT22;1803;48.494;9.696;2022-08-27T15:27:25;20.30;99.90
3578;DHT22;1803;48.494;9.696;2022-08-27T15:29:50;20.30;99.90
3578;DHT22;1803;48.494;9.696;2022-08-27T15:34:51;20.30;99.90
3578;DHT22;1803;48.494;9.696;2022-08-27T15:37:16;20.30;99.90
3578;DHT22;1803;48.494;9.696;2022-08-27T15:39:42;20.30;99.90
3578;DHT22;1803;48.494;9.696;2022-08-27T15:42:07;20.20;99.90
3578;DHT22;1803;48.494;9.696;2022-08-27T15:44:33;20.10;99.90
3578;DHT22;1803;48.494;9.696;2022-08-27T15:46:59;20.10;99.90
3578;DHT22;1803;48.494;9.696;2022-08-27T15:49:24;20.00;99.90
3578;DHT22;1803;48.494;9.696;2022-08-27T15:51:50;20.00;99.90
3578;DHT22;1803;48.494;9.696;2022-08-27T15:54:16;20.00;99.90
3578;DHT22;1803;48.494;9.696;2022-08-27T15:56:41;20.00;99.90
3578;DHT22;1803;48.494;9.696;2022-08-27T15:59:07;20.00;99.90
3578;DHT22;1803;48.494;9.696;2022-08-27T16:01:33;20.00;99.90
3578;DHT22;1803;48.494;9.696;2022-08-27T16:03:59;20.00;99.90
3578;DHT22;1803;48.494;9.696;2022-08-27T16:06:25;20.00;99.90
3578;DHT22;1803;48.494;9.696;2022-08-27T16:08:51;19.90;99.90
3578;DHT22;1803;48.494;9.696;2022-08-27T16:11:17;19.90;99.90
3578;DHT22;1803;48.494;9.696;2022-08-27T16:13:42;19.90;99.90
3578;DHT22;1803;48.494;9.696;2022-08-27T16:16:08;19.90;99.90
3578;DHT22;1803;48.494;9.696;2022-08-27T16:18:34;20.00;99.90
3578;DHT22;1803;48.494;9.696;2022-08-27T16:21:01;19.90;99.90
3578;DHT22;1803;48.494;9.696;2022-08-27T16:23:27;19.90;99.90
3578;DHT22;1803;48.494;9.696;2022-08-27T16:25:53;19.90;99.90
3578;DHT22;1803;48.494;9.696;2022-08-27T16:28:19;19.90;99.90
3578;DHT22;1803;48.494;9.696;2022-08-27T16:30:44;19.90;99.90
3578;DHT22;1803;48.494;9.696;2022-08-27T16:33:10;19.90;99.90
3578;DHT22;1803;48.494;9.696;2022-08-27T16:35:36;19.90;99.90
3578;DHT22;1803;48.494;9.696;2022-08-27T16:38:02;19.90;99.90
3578;DHT22;1803;48.494;9.696;2022-08-27T16:40:28;19.80;99.90
3578;DHT22;1803;48.494;9.696;2022-08-27T16:42:54;19.80;99.90
3578;DHT22;1803;48.494;9.696;2022-08-27T16:45:20;19.80;99.90
3578;DHT22;1803;48.494;9.696;2022-08-27T16:47:49;19.80;99.90
3578;DHT22;1803;48.494;9.696;2022-08-27T16:50:33;19.80;99.90
3578;DHT22;1803;48.494;9.696;2022-08-27T16:55:27;19.70;99.90
3578;DHT22;1803;48.494;9.696;2022-08-27T16:57:53;19.70;99.90
3578;DHT22;1803;48.494;9.696;2022-08-27T17:00:19;19.70;99.90
3578;DHT22;1803;48.494;9.696;2022-08-27T17:02:44;19.60;99.90
3578;DHT22;1803;48.494;9.696;2022-08-27T17:05:10;19.60;99.90
3578;DHT22;1803;48.494;9.696;2022-08-27T17:07:35;19.60;99.90
3578;DHT22;1803;48.494;9.696;2022-08-27T17:10:01;19.60;99.90
3578;DHT22;1803;48.494;9.696;2022-08-27T17:12:26;19.50;99.90
3578;DHT22;1803;48.494;9.696;2022-08-27T17:14:51;19.50;99.90
3578;DHT22;1803;48.494;9.696;2022-08-27T17:17:19;19.50;99.90
3578;DHT22;1803;48.494;9.696;2022-08-27T17:19:45;19.40;99.90
3578;DHT22;1803;48.494;9.696;2022-08-27T17:22:11;19.40;99.90
3578;DHT22;1803;48.494;9.696;2022-08-27T17:24:36;19.40;99.90
3578;DHT22;1803;48.494;9.696;2022-08-27T17:27:02;19.40;99.90
3578;DHT22;1803;48.494;9.696;2022-08-27T17:29:28;19.40;99.90
3578;DHT22;1803;48.494;9.696;2022-08-27T17:31:54;19.40;99.90
3578;DHT22;1803;48.494;9.696;2022-08-27T17:34:21;19.40;99.90
3578;DHT22;1803;48.494;9.696;2022-08-27T17:36:47;19.40;99.90
3578;DHT22;1803;48.494;9.696;2022-08-27T17:39:12;19.30;99.90
3578;DHT22;1803;48.494;9.696;2022-08-27T17:41:39;19.30;99.90
3578;DHT22;1803;48.494;9.696;2022-08-27T17:44:06;19.20;99.90
3578;DHT22;1803;48.494;9.696;2022-08-27T17:46:34;19.20;99.90
3578;DHT22;1803;48.494;9.696;2022-08-27T17:48:59;19.20;99.90
3578;DHT22;1803;48.494;9.696;2022-08-27T17:51:25;19.20;99.90
3578;DHT22;1803;48.494;9.696;2022-08-27T17:53:52;19.10;99.90
3578;DHT22;1803;48.494;9.696;2022-08-27T17:56:18;19.00;99.90
3578;DHT22;1803;48.494;9.696;2022-08-27T17:58:44;19.00;99.90
3578;DHT22;1803;48.494;9.696;2022-08-27T18:01:10;18.90;99.90
3578;DHT22;1803;48.494;9.696;2022-08-27T18:03:35;18.90;99.90
3578;DHT22;1803;48.494;9.696;2022-08-27T18:06:01;18.80;99.90
3578;DHT22;1803;48.494;9.696;2022-08-27T18:08:27;18.80;99.90
3578;DHT22;1803;48.494;9.696;2022-08-27T18:10:52;18.70;99.90
3578;DHT22;1803;48.494;9.696;2022-08-27T18:13:18;18.60;99.90
3578;DHT22;1803;48.494;9.696;2022-08-27T18:15:44;18.60;99.90
3578;DHT22;1803;48.494;9.696;2022-08-27T18:18:10;18.50;99.90
3578;DHT22;1803;48.494;9.696;2022-08-27T18:20:36;18.40;99.90
3578;DHT22;1803;48.494;9.696;2022-08-27T18:23:04;18.40;99.90
3578;DHT22;1803;48.494;9.696;2022-08-27T18:25:29;18.30;99.90
3578;DHT22;1803;48.494;9.696;2022-08-27T18:27:56;18.20;99.90
3578;DHT22;1803;48.494;9.696;2022-08-27T18:30:22;18.10;99.90
3578;DHT22;1803;48.494;9.696;2022-08-27T18:32:48;18.00;99.90
3578;DHT22;1803;48.494;9.696;2022-08-27T18:35:15;18.00;99.90
3578;DHT22;1803;48.494;9.696;2022-08-27T18:37:41;17.90;99.90
3578;DHT22;1803;48.494;9.696;2022-08-27T18:40:07;17.90;99.90
3578;DHT22;1803;48.494;9.696;2022-08-27T18:42:32;17.80;99.90
3578;DHT22;1803;48.494;9.696;2022-08-27T18:45:03;17.80;99.90
3578;DHT22;1803;48.494;9.696;2022-08-27T18:47:29;17.80;99.90
3578;DHT22;1803;48.494;9.696;2022-08-27T18:49:54;17.70;99.90
3578;DHT22;1803;48.494;9.696;2022-08-27T18:52:20;17.60;99.90
3578;DHT22;1803;48.494;9.696;2022-08-27T18:54:46;17.50;99.90
3578;DHT22;1803;48.494;9.696;2022-08-27T18:57:12;17.50;99.90
3578;DHT22;1803;48.494;9.696;2022-08-27T18:59:37;17.50;99.90
3578;DHT22;1803;48.494;9.696;2022-08-27T19:02:02;17.50;99.90
3578;DHT22;1803;48.494;9.696;2022-08-27T19:04:28;17.50;99.90
3578;DHT22;1803;48.494;9.696;2022-08-27T19:06:55;17.50;99.90
3578;DHT22;1803;48.494;9.696;2022-08-27T19:09:21;17.50;99.90
3578;DHT22;1803;48.494;9.696;2022-08-27T19:11:46;17.50;99.90
3578;DHT22;1803;48.494;9.696;2022-08-27T19:14:12;17.50;99.90
3578;DHT22;1803;48.494;9.696;2022-08-27T19:16:39;17.50;99.90
3578;DHT22;1803;48.494;9.696;2022-08-27T19:19:05;17.50;99.90
3578;DHT22;1803;48.494;9.696;2022-08-27T19:21:31;17.50;99.90
3578;DHT22;1803;48.494;9.696;2022-08-27T19:23:56;17.40;99.90
3578;DHT22;1803;48.494;9.696;2022-08-27T19:26:23;17.40;99.90
3578;DHT22;1803;48.494;9.696;2022-08-27T19:28:48;17.40;99.90
3578;DHT22;1803;48.494;9.696;2022-08-27T19:31:14;17.40;99.90
3578;DHT22;1803;48.494;9.696;2022-08-27T19:33:40;17.40;99.90
3578;DHT22;1803;48.494;9.696;2022-08-27T19:36:06;17.30;99.90
3578;DHT22;1803;48.494;9.696;2022-08-27T19:38:33;17.30;99.90
3578;DHT22;1803;48.494;9.696;2022-08-27T19:40:58;17.30;99.90
3578;DHT22;1803;48.494;9.696;2022-08-27T19:43:24;17.30;99.90
3578;DHT22;1803;48.494;9.696;2022-08-27T19:45:50;17.30;99.90
3578;DHT22;1803;48.494;9.696;2022-08-27T19:48:15;17.30;99.90
3578;DHT22;1803;48.494;9.696;2022-08-27T19:50:42;17.30;99.90
3578;DHT22;1803;48.494;9.696;2022-08-27T19:53:07;17.30;99.90
3578;DHT22;1803;48.494;9.696;2022-08-27T19:55:33;17.20;99.90
3578;DHT22;1803;48.494;9.696;2022-08-27T19:57:58;17.20;99.90
3578;DHT22;1803;48.494;9.696;2022-08-27T20:00:23;17.20;99.90
3578;DHT22;1803;48.494;9.696;2022-08-27T20:02:50;17.30;99.90
3578;DHT22;1803;48.494;9.696;2022-08-27T20:05:15;17.30;99.90
3578;DHT22;1803;48.494;9.696;2022-08-27T20:07:41;17.20;99.90
3578;DHT22;1803;48.494;9.696;2022-08-27T20:10:07;17.30;99.90
3578;DHT22;1803;48.494;9.696;2022-08-27T20:12:32;17.30;99.90
3578;DHT22;1803;48.494;9.696;2022-08-27T20:14:58;17.30;99.90
3578;DHT22;1803;48.494;9.696;2022-08-27T20:17:23;17.30;99.90
3578;DHT22;1803;48.494;9.696;2022-08-27T20:19:49;17.30;99.90
3578;DHT22;1803;48.494;9.696;2022-08-27T20:22:14;17.40;99.90
3578;DHT22;1803;48.494;9.696;2022-08-27T20:24:39;17.40;99.90
3578;DHT22;1803;48.494;9.696;2022-08-27T20:27:05;17.40;99.90
3578;DHT22;1803;48.494;9.696;2022-08-27T20:29:30;17.40;99.90
3578;DHT22;1803;48.494;9.696;2022-08-27T20:31:56;17.30;99.90
3578;DHT22;1803;48.494;9.696;2022-08-27T20:34:22;17.30;99.90
3578;DHT22;1803;48.494;9.696;2022-08-27T20:36:48;17.30;99.90
3578;DHT22;1803;48.494;9.696;2022-08-27T20:39:13;17.30;99.90
3578;DHT22;1803;48.494;9.696;2022-08-27T20:41:39;17.30;99.90
3578;DHT22;1803;48.494;9.696;2022-08-27T20:44:04;17.20;99.90
3578;DHT22;1803;48.494;9.696;2022-08-27T20:46:30;17.20;99.90
3578;DHT22;1803;48.494;9.696;2022-08-27T20:48:55;17.20;99.90
3578;DHT22;1803;48.494;9.696;2022-08-27T20:51:22;17.20;99.90
3578;DHT22;1803;48.494;9.696;2022-08-27T20:53:48;17.30;99.90
3578;DHT22;1803;48.494;9.696;2022-08-27T20:56:14;17.40;99.90
3578;DHT22;1803;48.494;9.696;2022-08-27T20:58:39;17.40;99.90
3578;DHT22;1803;48.494;9.696;2022-08-27T21:01:23;17.50;99.90
3578;DHT22;1803;48.494;9.696;2022-08-27T21:03:49;17.50;99.90
3578;DHT22;1803;48.494;9.696;2022-08-27T21:06:15;17.50;99.90
3578;DHT22;1803;48.494;9.696;2022-08-27T21:08:41;17.50;99.90
3578;DHT22;1803;48.494;9.696;2022-08-27T21:11:08;17.50;99.90
3578;DHT22;1803;48.494;9.696;2022-08-27T21:13:33;17.50;99.90
3578;DHT22;1803;48.494;9.696;2022-08-27T21:15:59;17.60;99.90
3578;DHT22;1803;48.494;9.696;2022-08-27T21:18:24;17.60;99.90
3578;DHT22;1803;48.494;9.696;2022-08-27T21:20:50;17.60;99.90
3578;DHT22;1803;48.494;9.696;2022-08-27T21:23:15;17.60;99.90
3578;DHT22;1803;48.494;9.696;2022-08-27T21:25:41;17.60;99.90
3578;DHT22;1803;48.494;9.696;2022-08-27T21:28:06;17.60;99.90
3578;DHT22;1803;48.494;9.696;2022-08-27T21:30:35;17.50;99.90
3578;DHT22;1803;48.494;9.696;2022-08-27T21:33:00;17.50;99.90
3578;DHT22;1803;48.494;9.696;2022-08-27T21:35:27;17.50;99.90
3578;DHT22;1803;48.494;9.696;2022-08-27T21:37:53;17.40;99.90
3578;DHT22;1803;48.494;9.696;2022-08-27T21:40:19;17.40;99.90
3578;DHT22;1803;48.494;9.696;2022-08-27T21:42:45;17.40;99.90
3578;DHT22;1803;48.494;9.696;2022-08-27T21:45:10;17.30;99.90
3578;DHT22;1803;48.494;9.696;2022-08-27T21:47:36;17.30;99.90
3578;DHT22;1803;48.494;9.696;2022-08-27T21:50:02;17.30;99.90
3578;DHT22;1803;48.494;9.696;2022-08-27T21:52:27;17.20;99.90
